Tiempo atmosférico en la estación meteorológica de Villafranca De Los Barros, Badajoz (430 m.)



Fecha
DESCASC
Temp. máxima en grados centígrados (hora)
DESCASC
Temp. mínima en grados centígrados (hora)
DESCASC
Temp. media en grados centígrados
DESCASC
Racha de viento máxima en m/sg (hora)
DESCASC
Velocidad máxima media en intervalos de 10 minutos(hora)
DESCASC
Precipitaciones diarias en mm
DESCASC
Precipitaciones de 00:00 a 06:00 en mm
DESCASC
Precipitaciones de 06:00 a 12:00 en mm
DESCASC
Precipitaciones de 12:00 a 18:00 en mm
DESCASC
Precipitaciones de 18:00 a 24:00 en mm
DESCASC
10-10-2019 32.2 (15:50) 10.2 (08:00) 21.2 7.78 (16:00) 5.28 (16:00) -- -- -- -- --
09-10-2019 28.9 (17:50) 13.5 (08:50) 21.2 7.5 (15:00) 4.17 (18:10) -- -- -- -- --
08-10-2019 33.8 (15:50) 13.2 (08:40) 23.5 6.39 (13:30) 4.17 (19:00) -- -- -- -- --
07-10-2019 -- (--) -- (--) -- -- (--) -- (--) -- -- -- -- --
06-10-2019 28.7 (16:50) 7.2 (00:00) 18 5.83 (18:40) 3.61 (17:30) 0 0 0 0 0
05-10-2019 26.5 (15:50) 10.5 (00:00) 18.5 5.83 (19:10) 4.17 (19:40) 0 0 0 0 0
04-10-2019 26.8 (18:00) 9.8 (00:00) 18.3 6.94 (00:40) 4.17 (00:40) 0 0 0 0 0
03-10-2019 28 (16:50) 7.8 (00:00) 17.9 7.78 (15:30) 5 (17:40) -- 0 0 -- --
02-10-2019 26.1 (17:50) 9.8 (00:00) 18 10.56 (00:40) 6.39 (00:20) 0 0 0 0 0
01-10-2019 26.4 (16:40) 12.9 (00:00) 19.6 11.39 (16:00) 6.94 (16:50) 0 0 0 0 0
30-09-2019 33.2 (16:20) 10.3 (00:00) 21.8 8.33 (17:10) 5.28 (17:00) 0 0 0 0 0
29-09-2019 31.5 (16:20) 11.7 (00:00) 21.6 6.39 (16:00) 3.89 (18:10) 0 0 0 0 0
28-09-2019 33.3 (17:30) 10.1 (00:00) 21.7 7.5 (19:00) 4.72 (19:00) 0 0 0 0 0
27-09-2019 29.9 (17:30) 11 (00:00) 20.4 6.67 (15:20) 3.89 (19:10) 0 0 0 0 0
26-09-2019 29.6 (18:40) 9.8 (00:00) 19.7 5.56 (15:50) 3.61 (20:00) 0 0 0 0 0
25-09-2019 26.1 (17:50) 13.3 (00:00) 19.7 8.06 (15:00) 4.72 (14:10) 0 0 0 0 0
24-09-2019 27.4 (15:50) 11.7 (00:00) 19.5 8.61 (17:30) 6.11 (22:50) 0 0 0 0 0
23-09-2019 26.4 (17:40) 8.5 (00:00) 17.4 5.83 (18:50) 2.5 (19:10) 0 0 0 0 0
22-09-2019 22.3 (18:20) 13.1 (00:00) 17.7 10 (01:30) 6.39 (01:40) 0 0 0 0 0
21-09-2019 22.7 (18:10) 16 (00:00) 19.4 10.28 (18:10) 7.22 (18:20) 0 0 0 0 0
20-09-2019 25.9 (15:20) 13.9 (00:00) 19.9 9.72 (12:20) 6.39 (14:00) 0 0 0 0 0
19-09-2019 30.4 (17:00) 13.3 (00:00) 21.8 6.94 (15:30) 4.72 (20:40) 0 0 0 0 0
18-09-2019 30 (18:20) 14.9 (00:00) 22.4 6.67 (16:10) 4.44 (21:30) 0 0 0 0 0
17-09-2019 32 (17:00) 15 (00:00) 23.5 10.83 (21:00) 4.72 (21:00) 0 0 0 0 0
16-09-2019 29.9 (17:10) 18 (00:00) 23.9 6.67 (14:40) 4.17 (14:50) 0 0 0 0 0
15-09-2019 27.7 (18:20) 13.4 (00:00) 20.6 6.39 (16:10) 3.61 (16:10) 0 0 0 0 0
14-09-2019 26.5 (16:20) 12 (00:00) 19.3 11.67 (16:40) 5.56 (18:30) 0 0 0 0 0

Gráficas

Temp. máximas Temp. mínimas Temp. medias Precipitaciones Rachas de viento máximas Velocidades máximas media en intervalos de 10 minutos

Datos horarios

Fecha y hora oficial Temperatura (ºC) Velocidad del viento (km/h) Dirección del viento Racha (km/h) Dirección de racha Precipitación (mm) Presión (hPa) Tendencia (hPa) Humedad (%)
2019-10-13 23:00:00 -- -- -- -- -- -- -- -- --
2019-10-13 22:00:00 20.6 9 Sur 12 Sur -- -- -- 44
2019-10-13 21:00:00 23 9 Sur 20 Sudoeste -- -- -- 39
2019-10-13 20:00:00 25.2 13 Sur 31 Sudoeste -- -- -- 36
2019-10-13 19:00:00 27.1 19 Sur 32 Sur -- -- -- 32
2019-10-13 18:00:00 28 18 Sudoeste 33 Sudoeste -- -- -- 31
2019-10-13 17:00:00 27.9 18 Sudoeste 37 Sudoeste -- -- -- 31
2019-10-13 16:00:00 27.2 17 Sur 34 Sur -- -- -- 34
2019-10-13 15:00:00 25.8 12 Sudoeste 26 Sudoeste -- -- -- 37
2019-10-13 14:00:00 23.5 10 Sudoeste 20 Sur -- -- -- 50
2019-10-13 13:00:00 21.8 8 Sur 22 Sudoeste -- -- -- 54
2019-10-13 12:00:00 19.7 9 Sur 22 Sur -- -- -- 63
2019-10-13 11:00:00 17.7 6 Sudeste 12 Sudeste -- -- -- 70
2019-10-13 10:00:00 14.7 7 Sudeste 14 Sudeste -- -- -- 83
2019-10-13 09:00:00 10.9 6 Sudeste 9 Sudeste -- -- -- 93
2019-10-13 08:00:00 11.3 5 Sudeste 10 Sudeste -- -- -- 89
2019-10-13 07:00:00 11.2 5 Sudeste 12 Sudeste -- -- -- 92
2019-10-13 06:00:00 11 6 Sudeste 8 Sudeste -- -- -- 86
2019-10-13 05:00:00 11.1 4 Sudeste 5 Sudeste -- -- -- 79
2019-10-13 04:00:00 13.5 4 Sur 9 Sur -- -- -- 76
2019-10-13 03:00:00 15 8 Sudoeste 12 Sudoeste -- -- -- 75
2019-10-13 02:00:00 16.2 7 Sudoeste 11 Sudoeste -- -- -- 78
2019-10-13 01:00:00 18.3 6 Sudoeste 14 Sur -- -- -- 68
2019-10-13 00:00:00 19.2 10 Sur 13 Sur -- -- -- 65
2019-10-12 23:00:00 20.6 10 Sur 17 Sur -- -- -- 60
2019-10-12 22:00:00 21.8 11 Sur 22 Sudoeste -- -- -- 54
2019-10-12 21:00:00 23.5 14 Sur 26 Sur -- -- -- 48
2019-10-12 20:00:00 25.4 20 Sudoeste 40 Sudoeste -- -- -- 42
2019-10-12 19:00:00 28 25 Sudoeste 39 Sur -- -- -- 38
2019-10-12 18:00:00 30.3 26 Sur 40 Sur -- -- -- 27
2019-10-12 17:00:00 30.9 24 Sur 36 Sur -- -- -- 26
2019-10-12 16:00:00 29.3 19 Sur 43 Sur -- -- -- 28
2019-10-12 15:00:00 30.1 15 Sur 33 Sudoeste -- -- -- 26
2019-10-12 14:00:00 30.4 18 Sur 36 Sur -- -- -- 26
2019-10-12 13:00:00 28.2 17 Sudeste 31 Sudeste -- -- -- 30
2019-10-12 12:00:00 26.2 15 Sudeste 25 Sudeste -- -- -- 35
2019-10-12 11:00:00 23.7 12 Sudeste 24 Sudeste -- -- -- 44
2019-10-12 10:00:00 19.1 3 Sudeste 9 Sudeste -- -- -- 59
2019-10-12 09:00:00 18.1 3 Sur 9 Sudoeste -- -- -- 61
2019-10-12 08:00:00 19.1 3 Sur 7 Sudoeste -- -- -- 56
2019-10-12 07:00:00 19.7 3 Noroeste 10 Sudeste -- -- -- 53
2019-10-12 06:00:00 20.6 3 Sudeste 10 Noroeste -- -- -- 52
2019-10-12 05:00:00 22.3 4 Sudeste 23 Sur -- -- -- 47
2019-10-12 04:00:00 22.5 7 Sudeste 17 Sudoeste -- -- -- 46
2019-10-12 03:00:00 23.2 12 Sur 26 Sur -- -- -- 44
2019-10-12 02:00:00 22.4 10 Sudeste 23 Sudeste -- -- -- 47
2019-10-12 01:00:00 22.6 9 Sudeste 22 Sur -- -- -- 45
2019-10-12 00:00:00 23.1 12 Sur 17 Sudeste -- -- -- 43
2019-10-11 23:00:00 23.3 11 Sur 20 Sur -- -- -- 41
2019-10-11 22:00:00 24.3 14 Sur 19 Sur -- -- -- 39
2019-10-11 21:00:00 24.9 9 Sur 15 Sur -- -- -- 38
2019-10-11 20:00:00 25.9 9 Sudeste 17 Sudoeste -- -- -- 36
2019-10-11 19:00:00 27 13 Sudoeste 25 Sur -- -- -- 35
2019-10-11 18:00:00 27.7 17 Sur 31 Sur -- -- -- 33
2019-10-11 17:00:00 28.8 13 Sudeste 30 Sur -- -- -- 33
2019-10-11 16:00:00 29.3 10 Sudoeste 22 Sudeste -- -- -- 32
2019-10-11 15:00:00 29.2 8 Sudoeste 19 Sudoeste -- -- -- 32
2019-10-11 14:00:00 28.2 9 Sur 21 Sudoeste -- -- -- 33
2019-10-11 13:00:00 26.7 11 Sur 26 Sudeste -- -- -- 39
2019-10-11 12:00:00 24.5 14 Sudeste 23 Sudeste -- -- -- 43
2019-10-11 11:00:00 21.9 9 Sudeste 16 Sur -- -- -- 57
2019-10-11 10:00:00 18.7 9 Sudeste 13 Sudeste -- -- -- 69
2019-10-11 09:00:00 15.3 0 Calma 10 Sudeste -- -- -- 73
2019-10-11 08:00:00 16.2 5 Sudeste 11 Sudeste -- -- -- 71
2019-10-11 07:00:00 17.3 2 Sudeste 18 Sudeste -- -- -- 61
2019-10-11 06:00:00 16.9 6 Sur 14 Sudeste -- -- -- 57
2019-10-11 05:00:00 19 8 Sudeste 17 Sudeste -- -- -- 52
2019-10-11 04:00:00 19.7 11 Sudeste 16 Sur -- -- -- 50
2019-10-11 03:00:00 19.8 7 Sudeste 12 Sur -- -- -- 51
2019-10-11 02:00:00 18.2 6 Sudeste 8 Sudeste -- -- -- 52
2019-10-11 01:00:00 17.5 6 Sur 9 Sur -- -- -- 49
2019-10-11 00:00:00 17.8 5 Sur 7 Sudeste -- -- -- 46
2019-10-10 23:00:00 18.9 4 Sudeste 8 Sur -- -- -- 41
2019-10-10 22:00:00 20.3 4 Sur 5 Sur -- -- -- 39
2019-10-10 21:00:00 23.9 2 Noroeste 9 Noroeste -- -- -- 37
2019-10-10 20:00:00 27.2 6 Noroeste 17 Norte 0 -- -- 32
2019-10-10 19:00:00 29.6 10 Noroeste 20 Norte 0 -- -- 28
2019-10-10 18:00:00 30.6 10 Norte 19 Noroeste 0 -- -- 27
2019-10-10 17:00:00 30.8 15 Noroeste 27 Noroeste 0 -- -- 26
2019-10-10 16:00:00 31.5 19 Noroeste 28 Noroeste 0 -- -- 26
2019-10-10 15:00:00 30.9 6 Noroeste 17 Nordeste 0 -- -- 27
2019-10-10 14:00:00 29.7 11 Noroeste 21 Oeste 0 -- -- 26
2019-10-10 13:00:00 28.1 6 Nordeste 12 Este -- -- -- 27
2019-10-10 12:00:00 25.6 5 Este 12 Este -- -- -- 28
2019-10-10 11:00:00 22.6 3 Sudeste 6 Sudeste -- -- -- 33
2019-10-10 10:00:00 17.3 0 Calma 6 Sudeste -- -- -- 44
2019-10-10 09:00:00 10.8 0 Calma 8 Sur -- -- -- 56
2019-10-10 08:00:00 10.2 5 Sur 6 Sur -- -- -- 56
2019-10-10 07:00:00 10.5 5 Sur 7 Sur -- -- -- 56
2019-10-10 06:00:00 11 5 Sur 7 Sur -- -- -- 56
2019-10-10 05:00:00 11.7 2 Sudeste 8 Sur -- -- -- 54
2019-10-10 04:00:00 13.1 2 Sur 6 Sur -- -- -- 51
2019-10-10 03:00:00 15.4 3 Sudoeste 7 Sudeste -- -- -- 47
2019-10-10 02:00:00 16.4 3 Sudoeste 8 Oeste -- -- -- 47
2019-10-10 01:00:00 17.4 4 Oeste 11 Oeste -- -- -- 46
2019-10-10 00:00:00 19.4 9 Oeste 18 Oeste -- -- -- 41
2019-10-09 23:00:00 21.7 10 Oeste 22 Oeste -- -- -- 37
2019-10-09 22:00:00 22.9 13 Oeste 21 Oeste -- -- -- 37
2019-10-09 21:00:00 23 4 Oeste 12 Noroeste -- -- -- 41
2019-10-09 20:00:00 25.9 10 Noroeste 22 Noroeste -- -- -- 38
2019-10-09 19:00:00 28 14 Noroeste 24 Noroeste -- -- -- 37
2019-10-09 18:00:00 28.8 12 Noroeste 21 Oeste -- -- -- 38
2019-10-09 17:00:00 28.8 10 Noroeste 19 Noroeste -- -- -- 42
2019-10-09 16:00:00 27.8 10 Noroeste 23 Norte -- -- -- 44
2019-10-09 15:00:00 26.7 13 Noroeste 27 Noroeste -- -- -- 48
2019-10-09 14:00:00 26.1 14 Noroeste 23 Norte -- -- -- 51
2019-10-09 13:00:00 25.9 6 Noroeste 12 Noroeste -- -- -- 50
2019-10-09 12:00:00 23.6 3 Sur 9 Oeste -- -- -- 59
2019-10-09 11:00:00 19.5 5 Oeste 15 Oeste -- -- -- 73
2019-10-09 10:00:00 17.5 13 Noroeste 18 Noroeste -- -- -- 81
2019-10-09 09:00:00 14 2 Oeste 7 Noroeste -- -- -- 91
2019-10-09 08:00:00 14.5 4 Sudoeste 5 Oeste -- -- -- 84
2019-10-09 07:00:00 16.2 6 Oeste 10 Oeste -- -- -- 87
2019-10-09 06:00:00 17 5 Oeste 17 Noroeste -- -- -- 84
2019-10-09 05:00:00 15.3 4 Noroeste 9 Noroeste -- -- -- 69
2019-10-09 04:00:00 16.7 0 Calma 8 Sudeste -- -- -- 71
2019-10-09 03:00:00 18.4 5 Sur 7 Sur -- -- -- 66
2019-10-09 02:00:00 20.3 3 Sudoeste 13 Oeste -- -- -- 61
2019-10-09 01:00:00 21.2 7 Oeste 12 Oeste -- -- -- 58
2019-10-09 00:00:00 23.1 8 Oeste 15 Oeste -- -- -- 53
2019-10-08 23:00:00 24 11 Oeste 21 Oeste -- -- -- 39
2019-10-08 22:00:00 21.9 7 Sudoeste 8 Sudoeste -- -- -- 34
2019-10-08 21:00:00 25.2 0 Calma 10 Noroeste -- -- -- 30
2019-10-08 20:00:00 29.6 9 Noroeste 22 Noroeste -- -- -- 25
2019-10-08 19:00:00 32.2 15 Noroeste 22 Noroeste -- -- -- 23
2019-10-08 18:00:00 33.5 12 Oeste 20 Noroeste -- -- -- 23
2019-10-08 17:00:00 33.6 10 Oeste 21 Oeste -- -- -- 23
2019-10-08 16:00:00 33.4 9 Noroeste 19 Oeste -- -- -- 23
2019-10-08 15:00:00 32.9 11 Noroeste 21 Noroeste -- -- -- 24
2019-10-08 14:00:00 32.2 8 Norte 23 Noroeste -- -- -- 24
2019-10-08 13:00:00 31.6 8 Sur 16 Sudoeste -- -- -- 24
2019-10-08 12:00:00 29.3 4 Este 8 Este -- -- -- 27
2019-10-08 11:00:00 26 2 Sur 5 Sur -- -- -- 32
2019-10-08 10:00:00 20.6 0 Calma 6 Sur -- -- -- 40
2019-10-08 09:00:00 13.6 4 Sudeste 6 Sur -- -- -- 49
2019-10-08 08:00:00 13.7 5 Sur 8 Sur -- -- -- 49
2019-10-08 07:00:00 13.6 4 Sudeste 8 Sur -- -- -- 48
2019-10-08 06:00:00 14.4 5 Sur 8 Sur -- -- -- 48
2019-10-08 05:00:00 15.1 6 Sudoeste 9 Sudoeste -- -- -- 47
2019-10-08 04:00:00 14.6 6 Sur 7 Sur -- -- -- 49
2019-10-08 03:00:00 15 3 Sudeste 5 Sur -- -- -- 42
2019-10-08 02:00:00 16 3 Sur 7 Sur -- -- -- 39
2019-10-08 01:00:00 16.3 0 Calma 8 Oeste -- -- -- 36
2019-10-08 00:00:00 17.2 3 Sudoeste 8 Oeste -- -- -- 33
2019-10-07 23:00:00 18 4 Sur 8 Sur -- -- -- 32
2019-10-07 22:00:00 19.2 5 Sur 8 Sur -- -- -- 30
2019-10-07 21:00:00 22 5 Sur 6 Sudeste -- -- -- 26
2019-10-07 20:00:00 28.3 0 Calma 12 Norte -- -- -- 21
2019-10-07 19:00:00 30.6 8 Norte 18 Noroeste -- -- -- 15
2019-10-07 18:00:00 31.1 9 Norte 16 Norte -- -- -- 17
2019-10-07 17:00:00 31.2 6 Noroeste 15 Norte -- -- -- 19
2019-10-07 16:00:00 30.2 7 Noroeste 17 Norte -- -- -- 23
2019-10-07 15:00:00 29.1 9 Noroeste 19 Norte -- -- -- 26
2019-10-07 14:00:00 27.4 6 Noroeste 12 Norte -- -- -- 31
2019-10-07 13:00:00 24.8 5 Noroeste 11 Norte -- -- -- 36
2019-10-07 12:00:00 22.7 8 Norte 15 Noroeste -- -- -- 45
2019-10-07 11:00:00 21 9 Noroeste 14 Noroeste -- -- -- 52
2019-10-07 10:00:00 18 5 Oeste 9 Oeste -- -- -- 59
2019-10-07 09:00:00 -- -- -- -- -- -- -- -- --
2019-10-07 08:00:00 12.7 2 Sudoeste 8 Sudoeste -- -- -- 66
2019-10-07 07:00:00 12.6 5 Sur 7 Sur -- -- -- 66
2019-10-07 06:00:00 15 3 Sudoeste 7 Sur -- -- -- 64
2019-10-07 05:00:00 15.8 3 Sur 6 Sudoeste -- -- -- 65
2019-10-07 04:00:00 15.3 2 Sudoeste 7 Sudoeste -- -- -- 61
2019-10-07 03:00:00 16.8 4 Oeste 9 Oeste -- -- -- 58
2019-10-07 02:00:00 18.5 2 Oeste 17 Oeste -- -- -- 53
2019-10-07 01:00:00 18.8 7 Oeste 14 Oeste -- -- -- 51
2019-10-07 00:00:00 19.6 10 Oeste 14 Oeste -- -- -- 41
2019-10-06 23:00:00 18 4 Sudoeste 7 Sur -- -- -- 40
2019-10-06 22:00:00 18.8 5 Sur 6 Sur -- -- -- 37
2019-10-06 21:00:00 20.4 3 Sudoeste 7 Noroeste -- -- -- 34
2019-10-06 20:00:00 25.8 6 Noroeste 16 Noroeste -- -- -- 27
2019-10-06 19:00:00 27.9 12 Noroeste 21 Noroeste -- -- -- 24
2019-10-06 18:00:00 28.6 12 Norte 19 Noroeste -- -- -- 25
2019-10-06 17:00:00 28.7 9 Noroeste 19 Noroeste -- -- -- 29
2019-10-06 16:00:00 28.2 11 Noroeste 20 Noroeste -- -- -- 31
2019-10-06 15:00:00 27.6 7 Noroeste 18 Oeste -- -- -- 34
2019-10-06 14:00:00 26.5 6 Norte 13 Norte -- -- -- 37
2019-10-06 13:00:00 25.1 5 Norte 10 Nordeste -- -- -- 41
2019-10-06 12:00:00 21.9 4 Sur 11 Sudeste -- -- -- 48
2019-10-06 11:00:00 17.5 3 Norte 10 Norte -- -- -- 61
2019-10-06 10:00:00 13.9 4 Norte 6 Norte -- -- -- 72
2019-10-06 09:00:00 7.9 3 Sur 8 Sur -- -- -- 77
2019-10-06 08:00:00 7.3 3 Sur 5 Sur -- -- -- 77
2019-10-06 07:00:00 7.9 3 Sudeste 7 Sur -- -- -- 75
2019-10-06 06:00:00 9 2 Sudeste 5 Sudeste -- -- -- 73
2019-10-06 05:00:00 9.9 4 Sudeste 6 Sudeste -- -- -- 73
2019-10-06 04:00:00 10.7 3 Sur 6 Sudeste -- -- -- 74
2019-10-06 03:00:00 12.4 4 Sur 8 Noroeste -- -- -- 66
2019-10-06 02:00:00 16.4 8 Noroeste 21 Noroeste -- -- -- 60
2019-10-06 01:00:00 12.7 0 Calma 6 Sudoeste -- -- -- 66
2019-10-06 00:00:00 14.5 3 Sudoeste 6 Sudoeste -- -- -- 61
2019-10-05 23:00:00 14.3 3 Sudoeste 6 Sudeste -- -- -- 55
2019-10-05 22:00:00 16.2 4 Sur 8 Oeste -- -- -- 55
2019-10-05 21:00:00 20.3 4 Noroeste 13 Noroeste -- -- -- 47
2019-10-05 20:00:00 23.3 10 Noroeste 21 Noroeste -- -- -- 41
2019-10-05 19:00:00 24.6 12 Noroeste 21 Oeste -- -- -- 38
2019-10-05 18:00:00 25.7 13 Noroeste 20 Noroeste -- -- -- 34
2019-10-05 17:00:00 26 12 Oeste 21 Oeste -- -- -- 38
2019-10-05 16:00:00 26.2 14 Oeste 21 Oeste -- -- -- 38
2019-10-05 15:00:00 25.9 6 Oeste 19 Noroeste -- -- -- 41
2019-10-05 14:00:00 24.5 5 Noroeste 14 Noroeste -- -- -- 48
2019-10-05 13:00:00 22.3 6 Norte 10 Norte -- -- -- 54
2019-10-05 12:00:00 20 4 Norte 12 Norte -- -- -- 61
2019-10-05 11:00:00 18.2 3 Norte 6 Norte -- -- -- 67
2019-10-05 10:00:00 14.5 2 Noroeste 5 Norte -- -- -- 78
2019-10-05 09:00:00 11.4 4 Sur 6 Sur -- -- -- 89
2019-10-05 08:00:00 11.2 3 Sur 9 Sudeste -- -- -- 87
2019-10-05 07:00:00 11.9 6 Sur 8 Sudeste -- -- -- 88
2019-10-05 06:00:00 10.7 6 Sudeste 8 Sudeste -- -- -- 84
2019-10-05 05:00:00 11.2 3 Sudeste 6 Sudeste -- -- -- 82
2019-10-05 04:00:00 13 4 Sur 7 Oeste -- -- -- 78
2019-10-05 03:00:00 15.4 6 Noroeste 15 Noroeste -- -- -- 74
2019-10-05 02:00:00 16.5 6 Noroeste 15 Noroeste -- -- -- 71
2019-10-05 01:00:00 18.2 5 Noroeste 13 Noroeste -- -- -- 65
2019-10-05 00:00:00 19.2 6 Oeste 18 Oeste -- -- -- 62
2019-10-04 23:00:00 19.8 12 Oeste 19 Oeste -- -- -- 61
2019-10-04 22:00:00 18.5 0 Calma 5 Oeste -- -- -- 57
2019-10-04 21:00:00 22.2 5 Noroeste 14 Noroeste -- -- -- 48
2019-10-04 20:00:00 24.8 9 Noroeste 21 Noroeste -- -- -- 44
2019-10-04 19:00:00 26.2 10 Noroeste 23 Noroeste -- -- -- 44
2019-10-04 18:00:00 26.8 9 Oeste 23 Oeste -- -- -- 44
2019-10-04 17:00:00 26.1 8 Oeste 22 Oeste -- -- -- 47
2019-10-04 16:00:00 25.6 11 Noroeste 24 Oeste -- -- -- 49
2019-10-04 15:00:00 25 10 Oeste 19 Noroeste -- -- -- 49
2019-10-04 14:00:00 23.6 7 Oeste 18 Noroeste -- -- -- 54
2019-10-04 13:00:00 22.4 7 Oeste 15 Noroeste -- -- -- 58
2019-10-04 12:00:00 21.1 5 Sur 10 Sudeste -- -- -- 62
2019-10-04 11:00:00 19 4 Sudeste 9 Este -- -- -- 68
2019-10-04 10:00:00 16 0 Calma 5 Sur -- -- -- 79
2019-10-04 09:00:00 10.2 3 Sur 5 Sur -- -- -- 82
2019-10-04 08:00:00 10.4 2 Este 8 Este -- -- -- 81
2019-10-04 07:00:00 12.2 0 Calma 7 Sur -- -- -- 79
2019-10-04 06:00:00 12.7 4 Sur 9 Sudeste -- -- -- 80
2019-10-04 05:00:00 12.8 0 Calma 6 Sur -- -- -- 81
2019-10-04 04:00:00 15.2 0 Calma 13 Oeste -- -- -- 82
2019-10-04 03:00:00 17.2 5 Oeste 14 Noroeste -- -- -- 76
2019-10-04 02:00:00 18.5 12 Oeste 20 Oeste -- -- -- 71
2019-10-04 01:00:00 19.6 15 Oeste 25 Noroeste -- -- -- 66
2019-10-04 00:00:00 20.1 13 Oeste 23 Oeste -- -- -- 56
2019-10-03 23:00:00 19.1 10 Oeste 13 Sudoeste -- -- -- 34
2019-10-03 22:00:00 19 8 Sudoeste 15 Oeste -- -- -- 35
2019-10-03 21:00:00 22.8 11 Noroeste 15 Oeste -- -- -- 30
2019-10-03 20:00:00 25.6 11 Noroeste 20 Oeste -- -- -- 27
2019-10-03 19:00:00 27.1 14 Noroeste 25 Noroeste -- -- -- 27
2019-10-03 18:00:00 27.2 16 Noroeste 26 Oeste -- -- -- 25
2019-10-03 17:00:00 27.9 15 Noroeste 26 Noroeste -- -- -- 26
2019-10-03 16:00:00 27.2 14 Noroeste 28 Noroeste -- -- -- 27
2019-10-03 15:00:00 26.3 12 Noroeste 21 Noroeste -- -- -- 31
2019-10-03 14:00:00 24.5 9 Noroeste 19 Oeste 0 -- -- 34
2019-10-03 13:00:00 22.8 11 Noroeste 19 Noroeste 0 -- -- 39
2019-10-03 12:00:00 21 7 Norte 16 Noroeste 0 -- -- 46
2019-10-03 11:00:00 18.2 5 Noroeste 10 Noroeste 0 -- -- 56
2019-10-03 10:00:00 14.8 5 Sudoeste 8 Oeste 0 -- -- 64
2019-10-03 09:00:00 8.7 4 Sur 5 Sur 0 -- -- 71
2019-10-03 08:00:00 8.4 0 Calma 5 Sur 0 -- -- 73
2019-10-03 07:00:00 9.5 3 Sudeste 5 Sudeste 0 -- -- 71
2019-10-03 06:00:00 9.8 4 Sur 7 Sur 0 -- -- 70
2019-10-03 05:00:00 10.5 4 Sur 6 Sur 0 -- -- 68
2019-10-03 04:00:00 11.9 4 Sur 6 Sudoeste 0 -- -- 63
2019-10-03 03:00:00 14.5 2 Sur 7 Sudoeste 0 -- -- 61
2019-10-03 02:00:00 16.3 4 Oeste 14 Oeste 0 -- -- 55
2019-10-03 01:00:00 16.6 8 Oeste 13 Oeste 0 -- -- 52
2019-10-03 00:00:00 17.5 8 Oeste 16 Oeste 0 -- -- 47
2019-10-02 23:00:00 19.3 10 Oeste 18 Oeste 0 -- -- 42
2019-10-02 22:00:00 19.6 10 Oeste 17 Oeste 0 -- -- 36
2019-10-02 21:00:00 22.4 12 Noroeste 17 Oeste 0 -- -- 32
2019-10-02 20:00:00 24 8 Noroeste 21 Noroeste 0 -- -- 30
2019-10-02 19:00:00 25.6 13 Noroeste 26 Noroeste -- -- -- 29
2019-10-02 18:00:00 25.9 15 Noroeste 25 Noroeste 0 -- -- 28
2019-10-02 17:00:00 25.8 12 Noroeste 21 Oeste 0 -- -- 28
2019-10-02 16:00:00 24.6 13 Noroeste 22 Oeste 0 -- -- 32
2019-10-02 15:00:00 23.2 13 Oeste 26 Oeste 0 -- -- 37
2019-10-02 14:00:00 21.7 15 Noroeste 31 Oeste 0 -- -- 41
2019-10-02 13:00:00 19.7 15 Noroeste 22 Noroeste 0 -- -- 52
2019-10-02 12:00:00 17.8 13 Noroeste 20 Oeste 0 -- -- 64
2019-10-02 11:00:00 16 13 Noroeste 20 Noroeste 0 -- -- 74
2019-10-02 10:00:00 13.9 12 Oeste 19 Oeste 0 -- -- 84
2019-10-02 09:00:00 10.8 3 Sudoeste 9 Oeste 0 -- -- 96
2019-10-02 08:00:00 10.6 6 Oeste 9 Oeste 0 -- -- 95
2019-10-02 07:00:00 10.9 4 Oeste 12 Oeste 0 -- -- 90
2019-10-02 06:00:00 12.2 7 Oeste 17 Oeste 0 -- -- 90
2019-10-02 05:00:00 13.1 10 Oeste 21 Noroeste 0 -- -- 86
2019-10-02 04:00:00 14.3 14 Oeste 27 Noroeste 0 -- -- 79
2019-10-02 03:00:00 15.5 15 Oeste 29 Oeste 0 -- -- 74
2019-10-02 02:00:00 16.6 17 Oeste 35 Oeste 0 -- -- 70
2019-10-02 01:00:00 17.9 17 Noroeste 38 Noroeste 0 -- -- 65
2019-10-02 00:00:00 19.3 16 Noroeste 33 Noroeste 0 -- -- 58
2019-10-01 23:00:00 20.5 15 Oeste 28 Noroeste 0 -- -- 53
2019-10-01 22:00:00 21.7 14 Oeste 25 Oeste 0 -- -- 48
2019-10-01 21:00:00 22.8 16 Noroeste 27 Oeste 0 -- -- 45
2019-10-01 20:00:00 23.9 18 Noroeste 31 Noroeste 0 -- -- 44
2019-10-01 19:00:00 25.1 19 Noroeste 36 Noroeste 0 -- -- 42
2019-10-01 18:00:00 25.8 22 Noroeste 39 Oeste 0 -- -- 42
2019-10-01 17:00:00 26.1 22 Noroeste 39 Noroeste 0 -- -- 42
2019-10-01 16:00:00 25.9 21 Noroeste 41 Oeste 0 -- -- 44
2019-10-01 15:00:00 24.6 21 Noroeste 35 Oeste 0 -- -- 47
2019-10-01 14:00:00 23.6 19 Noroeste 31 Noroeste 0 -- -- 50
2019-10-01 13:00:00 21.6 21 Noroeste 34 Noroeste 0 -- -- 58
2019-10-01 12:00:00 19.4 19 Noroeste 33 Oeste 0 -- -- 68
2019-10-01 11:00:00 18 22 Oeste 34 Oeste 0 -- -- 75
2019-10-01 10:00:00 16.7 20 Oeste 30 Oeste 0 -- -- 81
2019-10-01 09:00:00 14.6 7 Noroeste 13 Oeste 0 -- -- 87
2019-10-01 08:00:00 13.9 2 Sur 12 Oeste 0 -- -- 79
2019-10-01 07:00:00 16.8 9 Oeste 22 Oeste 0 -- -- 79
2019-10-01 06:00:00 18 11 Oeste 17 Oeste 0 -- -- 69
2019-10-01 05:00:00 16.9 10 Oeste 13 Sudoeste 0 -- -- 54
2019-10-01 04:00:00 14.2 4 Sur 5 Sur 0 -- -- 50
2019-10-01 03:00:00 14.3 4 Sur 6 Sur 0 -- -- 49
2019-10-01 02:00:00 16.8 2 Noroeste 6 Oeste 0 -- -- 47
2019-10-01 01:00:00 17.5 2 Oeste 9 Oeste 0 -- -- 43
2019-10-01 00:00:00 18.5 7 Oeste 9 Oeste 0 -- -- 37
2019-09-30 23:00:00 20.3 5 Sudoeste 13 Sudoeste 0 -- -- 35
2019-09-30 22:00:00 21.9 10 Sudoeste 11 Sudoeste 0 -- -- 31
2019-09-30 21:00:00 26.1 8 Oeste 21 Noroeste 0 -- -- 26
2019-09-30 20:00:00 29.3 14 Oeste 24 Oeste 0 -- -- 22
2019-09-30 19:00:00 31.7 14 Sudoeste 23 Noroeste 0 -- -- 21
2019-09-30 18:00:00 33 15 Oeste 30 Oeste 0 -- -- 18
2019-09-30 17:00:00 33.1 19 Oeste 27 Oeste 0 -- -- 16
2019-09-30 16:00:00 32.9 14 Oeste 26 Oeste 0 -- -- 17
2019-09-30 15:00:00 31.9 11 Sudoeste 22 Sudoeste 0 -- -- 20
2019-09-30 14:00:00 31.1 9 Sur 20 Sudeste 0 -- -- 22
2019-09-30 13:00:00 29.9 9 Sur 18 Sur 0 -- -- 22
2019-09-30 12:00:00 27.8 5 Sur 10 Sur 0 -- -- 26
2019-09-30 11:00:00 24.6 4 Sudeste 11 Sudeste 0 -- -- 34
2019-09-30 10:00:00 19.1 5 Sudeste 8 Sudeste 0 -- -- 40
2019-09-30 09:00:00 11.5 3 Sudeste 6 Sur 0 -- -- 63
2019-09-30 08:00:00 10.6 4 Sur 8 Sur 0 -- -- 62
2019-09-30 07:00:00 11.6 4 Sur 8 Sur 0 -- -- 62
2019-09-30 06:00:00 12 2 Sudeste 7 Sur 0 -- -- 59
2019-09-30 05:00:00 13 3 Sudeste 4 Sudeste 0 -- -- 58
2019-09-30 04:00:00 14.7 4 Sur 8 Sudoeste 0 -- -- 55
2019-09-30 03:00:00 15.1 5 Sudoeste 7 Sudoeste 0 -- -- 45
2019-09-30 02:00:00 16.9 5 Sudoeste 7 Sudoeste 0 -- -- 37
2019-09-30 01:00:00 17 3 Sudoeste 7 Sur 0 -- -- 38
2019-09-30 00:00:00 16.9 4 Sur 6 Sur 0 -- -- 41
2019-09-29 23:00:00 18.8 3 Sur 7 Sur 0 -- -- 38
2019-09-29 22:00:00 19.5 5 Sur 6 Sur 0 -- -- 36
2019-09-29 21:00:00 24 0 Calma 10 Noroeste 0 -- -- 30
2019-09-29 20:00:00 28.3 9 Noroeste 18 Noroeste 0 -- -- 26
2019-09-29 19:00:00 30.3 10 Noroeste 22 Oeste 0 -- -- 27
2019-09-29 18:00:00 31.1 13 Noroeste 21 Noroeste 0 -- -- 26
2019-09-29 17:00:00 31.3 9 Noroeste 23 Noroeste 0 -- -- 26
2019-09-29 16:00:00 31.2 10 Norte 23 Norte 0 -- -- 26
2019-09-29 15:00:00 30.7 7 Noroeste 20 Norte 0 -- -- 26
2019-09-29 14:00:00 29.8 8 Norte 17 Oeste 0 -- -- 28
2019-09-29 13:00:00 28.6 4 Norte 9 Sudeste 0 -- -- 30
2019-09-29 12:00:00 27.5 2 Sur 9 Sudeste 0 -- -- 32
2019-09-29 11:00:00 24 5 Sur 8 Sur 0 -- -- 41
2019-09-29 10:00:00 19.2 0 Calma 6 Sudeste 0 -- -- 49
2019-09-29 09:00:00 12.8 5 Sudeste 8 Sudeste 0 -- -- 59
2019-09-29 08:00:00 11.9 5 Sur 6 Sur 0 -- -- 62
2019-09-29 07:00:00 12.2 4 Sudeste 5 Sur 0 -- -- 59
2019-09-29 06:00:00 12.5 5 Sur 6 Sur 0 -- -- 58
2019-09-29 05:00:00 13.1 4 Sur -- -- 0 -- -- 55
2019-09-29 04:00:00 14.1 4 Sur 6 Sur 0 -- -- 53
2019-09-29 03:00:00 14.9 4 Sur 6 Sur 0 -- -- 51
2019-09-29 02:00:00 17.2 5 Sur 6 Sur 0 -- -- 47
2019-09-29 01:00:00 17.5 5 Sudoeste 7 Sudoeste 0 -- -- 46
2019-09-29 00:00:00 18.5 5 Sudoeste 8 Sudoeste 0 -- -- 44
2019-09-28 23:00:00 20.3 3 Sudoeste 7 Sur 0 -- -- 40
2019-09-28 22:00:00 23.9 3 Sur 15 Noroeste 0 -- -- 35
2019-09-28 21:00:00 26.1 9 Noroeste 15 Noroeste 0 -- -- 32
2019-09-28 20:00:00 29.2 12 Noroeste 24 Noroeste 0 -- -- 26
2019-09-28 19:00:00 31.5 17 Noroeste 27 Noroeste 0 -- -- 23
2019-09-28 18:00:00 33 6 Oeste 21 Sudoeste 0 -- -- 20
2019-09-28 17:00:00 33.1 10 Sur 24 Noroeste 0 -- -- 19
2019-09-28 16:00:00 32.4 6 Oeste 23 Sur 0 -- -- 22
2019-09-28 15:00:00 31.7 6 Este 19 Este 0 -- -- 23
2019-09-28 14:00:00 30.5 7 Sur 16 Sudeste 0 -- -- 25
2019-09-28 13:00:00 28.8 9 Sudeste 20 Este 0 -- -- 26
2019-09-28 12:00:00 26.4 8 Este 15 Sudeste 0 -- -- 34
2019-09-28 11:00:00 23.3 5 Este 8 Sudeste 0 -- -- 45
2019-09-28 10:00:00 18.3 3 Sur 6 Sur 0 -- -- 68
2019-09-28 09:00:00 11.3 2 Sudeste 8 Sur 0 -- -- 81
2019-09-28 08:00:00 10.1 3 Sudeste 5 Sudeste 0 -- -- 79
2019-09-28 07:00:00 10.5 3 Sudeste 6 Sur 0 -- -- 76
2019-09-28 06:00:00 11.1 4 Sudeste 6 Sur 0 -- -- 74
2019-09-28 05:00:00 11.7 0 Calma 5 Sudoeste 0 -- -- 69
2019-09-28 04:00:00 12.7 4 Sur 5 Sur 0 -- -- 70
2019-09-28 03:00:00 13.5 3 Sudoeste 6 Sudoeste 0 -- -- 68
2019-09-28 02:00:00 14.9 3 Sudoeste 6 Sudoeste 0 -- -- 58
2019-09-28 01:00:00 17.7 2 Sudoeste 12 Oeste 0 -- -- 47
2019-09-28 00:00:00 19.6 8 Oeste 14 Oeste 0 -- -- 38
2019-09-27 23:00:00 21.3 8 Oeste 14 Oeste 0 -- -- 34
2019-09-27 22:00:00 18.7 2 Sudoeste 4 Sur 0 -- -- 41
2019-09-27 21:00:00 23.1 2 Noroeste 12 Noroeste 0 -- -- 33
2019-09-27 20:00:00 27.5 10 Noroeste 20 Noroeste 0 -- -- 27
2019-09-27 19:00:00 29.3 12 Noroeste 19 Noroeste 0 -- -- 25
2019-09-27 18:00:00 29.7 12 Noroeste 21 Noroeste 0 -- -- 27
2019-09-27 17:00:00 29.7 8 Oeste 22 Noroeste 0 -- -- 29
2019-09-27 16:00:00 29.1 8 Noroeste 24 Norte 0 -- -- 32
2019-09-27 15:00:00 28.6 10 Oeste 21 Oeste 0 -- -- 33
2019-09-27 14:00:00 27.3 9 Noroeste 19 Oeste 0 -- -- 37
2019-09-27 13:00:00 24.8 9 Noroeste 17 Noroeste 0 -- -- 45
2019-09-27 12:00:00 23.8 9 Noroeste 15 Oeste 0 -- -- 45
2019-09-27 11:00:00 22.9 8 Norte 13 Norte 0 -- -- 47
2019-09-27 10:00:00 19.9 4 Sur 6 Sudeste 0 -- -- 54
2019-09-27 09:00:00 12.3 5 Sudeste 6 Sudeste 0 -- -- 76
2019-09-27 08:00:00 11 5 Sur 6 Sur 0 -- -- 75
2019-09-27 07:00:00 11.7 4 Sudeste 6 Sur 0 -- -- 73
2019-09-27 06:00:00 12.3 3 Sudeste 5 Sur 0 -- -- 72
2019-09-27 05:00:00 13.6 3 Sudeste 6 Sur 0 -- -- 68
2019-09-27 04:00:00 14.8 3 Sudoeste 6 Sudoeste 0 -- -- 64
2019-09-27 03:00:00 15.6 2 Sudoeste 5 Sur 0 -- -- 65
2019-09-27 02:00:00 15.9 0 Calma 6 Oeste 0 -- -- 60
2019-09-27 01:00:00 18.4 5 Sudoeste 14 Oeste 0 -- -- 50
2019-09-27 00:00:00 16.8 5 Oeste 10 Oeste 0 -- -- 54
2019-09-26 23:00:00 17.5 4 Sur 6 Sudoeste 0 -- -- 51
2019-09-26 22:00:00 19.9 3 Sur 5 Norte 0 -- -- 45
2019-09-26 21:00:00 24.1 5 Norte 19 Noroeste 0 -- -- 38
2019-09-26 20:00:00 27.1 13 Noroeste 19 Noroeste 0 -- -- 34
2019-09-26 19:00:00 29.1 9 Noroeste 16 Noroeste 0 -- -- 31
2019-09-26 18:00:00 29.5 10 Noroeste 15 Noroeste 0 -- -- 29
2019-09-26 17:00:00 29.2 10 Noroeste 17 Noroeste 0 -- -- 29
2019-09-26 16:00:00 28.7 9 Noroeste 20 Noroeste 0 -- -- 30
2019-09-26 15:00:00 27.6 4 Nordeste 15 Oeste 0 -- -- 33
2019-09-26 14:00:00 26.3 8 Noroeste 13 Oeste 0 -- -- 36
2019-09-26 13:00:00 24.7 6 Noroeste 14 Noroeste 0 -- -- 43
2019-09-26 12:00:00 22.5 3 Oeste 8 Noroeste 0 -- -- 49
2019-09-26 11:00:00 20 3 Noroeste 8 Norte 0 -- -- 58
2019-09-26 10:00:00 17.3 0 Calma 4 Sudeste 0 -- -- 68
2019-09-26 09:00:00 11.4 4 Sur 6 Sur 0 -- -- 84
2019-09-26 08:00:00 9.8 5 Sur 6 Sur 0 -- -- 85
2019-09-26 07:00:00 10.4 4 Sur 5 Sur 0 -- -- 83
2019-09-26 06:00:00 11 4 Sur 6 Sur 0 -- -- 79
2019-09-26 05:00:00 12.4 3 Sur 7 Sudoeste 0 -- -- 79
2019-09-26 04:00:00 12.9 0 Calma 5 Sudoeste 0 -- -- 73
2019-09-26 03:00:00 14.8 3 Noroeste 10 Oeste 0 -- -- 70
2019-09-26 02:00:00 16.6 4 Oeste 10 Oeste 0 -- -- 63
2019-09-26 01:00:00 17.4 8 Oeste 15 Oeste 0 -- -- 59
2019-09-26 00:00:00 18.7 10 Oeste 18 Oeste 0 -- -- 54
2019-09-25 23:00:00 17.4 8 Oeste 11 Sudoeste 0 -- -- 52
2019-09-25 22:00:00 19.4 5 Noroeste 9 Noroeste 0 -- -- 46
2019-09-25 21:00:00 21.8 6 Noroeste 15 Noroeste 0 -- -- 40
2019-09-25 20:00:00 24.4 11 Noroeste 22 Noroeste 0 -- -- 36
2019-09-25 19:00:00 25.7 14 Noroeste 26 Noroeste 0 -- -- 33
2019-09-25 18:00:00 25.9 13 Noroeste 27 Noroeste 0 -- -- 33
2019-09-25 17:00:00 25.7 13 Noroeste 26 Norte 0 -- -- 35
2019-09-25 16:00:00 24.7 15 Noroeste 29 Norte 0 -- -- 38
2019-09-25 15:00:00 23.6 16 Noroeste 29 Noroeste 0 -- -- 40
2019-09-25 14:00:00 22.2 15 Noroeste 24 Norte 0 -- -- 47
2019-09-25 13:00:00 20.3 12 Noroeste 22 Noroeste 0 -- -- 53
2019-09-25 12:00:00 18.5 11 Noroeste 19 Noroeste 0 -- -- 65
2019-09-25 11:00:00 16.6 9 Noroeste 15 Oeste 0 -- -- 77
2019-09-25 10:00:00 14.1 6 Oeste 13 Sudoeste 0 -- -- 93
2019-09-25 09:00:00 13.4 3 Sudoeste 14 Oeste 0 -- -- 93
2019-09-25 08:00:00 13.6 9 Noroeste 17 Noroeste 0 -- -- 93
2019-09-25 07:00:00 14.1 11 Noroeste 21 Oeste 0 -- -- 91
2019-09-25 06:00:00 14.4 9 Noroeste 23 Oeste 0 -- -- 91
2019-09-25 05:00:00 15.4 15 Noroeste 26 Noroeste 0 -- -- 88
2019-09-25 04:00:00 16.2 13 Noroeste 20 Noroeste 0 -- -- 86
2019-09-25 03:00:00 17.1 12 Noroeste 18 Oeste 0 -- -- 84
2019-09-25 02:00:00 18.2 11 Noroeste 27 Noroeste 0 -- -- 79
2019-09-25 01:00:00 20.1 15 Noroeste 26 Noroeste 0 -- -- 76
2019-09-25 00:00:00 20.2 17 Noroeste 26 Noroeste 0 -- -- 79
2019-09-24 23:00:00 21 20 Noroeste 31 Oeste 0 -- -- 80
2019-09-24 22:00:00 22.1 17 Noroeste 25 Noroeste 0 -- -- 74
2019-09-24 21:00:00 23.1 10 Noroeste 29 Noroeste 0 -- -- 67
2019-09-24 20:00:00 24.9 17 Noroeste 26 Noroeste 0 -- -- 59
2019-09-24 19:00:00 26.2 17 Noroeste 30 Oeste 0 -- -- 55
2019-09-24 18:00:00 27.1 18 Noroeste 31 Noroeste 0 -- -- 51
2019-09-24 17:00:00 27.1 17 Noroeste 29 Oeste 0 -- -- 47
2019-09-24 16:00:00 27.3 14 Noroeste 31 Noroeste 0 -- -- 43
2019-09-24 15:00:00 26.9 14 Noroeste 23 Noroeste 0 -- -- 34
2019-09-24 14:00:00 25.6 13 Noroeste 21 Oeste 0 -- -- 32
2019-09-24 13:00:00 23.5 11 Noroeste 18 Oeste 0 -- -- 44
2019-09-24 12:00:00 21.8 7 Noroeste 17 Oeste 0 -- -- 49
2019-09-24 11:00:00 20.2 7 Noroeste 13 Noroeste 0 -- -- 53
2019-09-24 10:00:00 18 4 Oeste 6 Oeste 0 -- -- 63
2019-09-24 09:00:00 13.9 4 Sur 7 Sudoeste 0 -- -- 85
2019-09-24 08:00:00 11.7 4 Sudoeste 6 Sudoeste 0 -- -- 88
2019-09-24 07:00:00 13.3 0 Calma 7 Sur 0 -- -- 85
2019-09-24 06:00:00 14.2 3 Sur 5 Sur 0 -- -- 76
2019-09-24 05:00:00 12.9 2 Sur 7 Oeste 0 -- -- 77
2019-09-24 04:00:00 13.2 4 Oeste 7 Oeste 0 -- -- 73
2019-09-24 03:00:00 13.7 3 Sur 5 Sudoeste 0 -- -- 67
2019-09-24 02:00:00 13.6 2 Sudoeste 6 Sur 0 -- -- 68
2019-09-24 01:00:00 14 3 Sur 5 Sudeste 0 -- -- 62
2019-09-24 00:00:00 14.7 3 Sur 6 Sur 0 -- -- 60
2019-09-23 23:00:00 16 4 Sur 5 Sudeste 0 -- -- 57
2019-09-23 22:00:00 18.5 0 Calma 9 Noroeste 0 -- -- 48
2019-09-23 21:00:00 21.6 6 Noroeste 12 Noroeste 0 -- -- 40
2019-09-23 20:00:00 24.4 9 Norte 15 Norte 0 -- -- 34
2019-09-23 19:00:00 26.1 8 Noroeste 21 Norte 0 -- -- 32
2019-09-23 18:00:00 26.3 3 Norte 18 Oeste 0 -- -- 31
2019-09-23 17:00:00 25.8 4 Norte 15 Nordeste 0 -- -- 35
2019-09-23 16:00:00 25 7 Oeste 15 Noroeste 0 -- -- 37
2019-09-23 15:00:00 23.7 6 Noroeste 14 Noroeste 0 -- -- 39
2019-09-23 14:00:00 22.5 5 Este 19 Sudoeste 0 -- -- 48
2019-09-23 13:00:00 21.5 4 Noroeste 12 Nordeste 0 -- -- 51
2019-09-23 12:00:00 20.1 3 Noroeste 9 Este 0 -- -- 56
2019-09-23 11:00:00 17.9 2 Noroeste 5 Norte 0 -- -- 64
2019-09-23 10:00:00 14.5 2 Sur 4 Sur 0 -- -- 83
2019-09-23 09:00:00 9.9 2 Sur 5 Sudeste 0 -- -- 96
2019-09-23 08:00:00 8.7 4 Sur 5 Sudeste 0 -- -- 94
2019-09-23 07:00:00 9.4 3 Sudeste 6 Sudeste 0 -- -- 93
2019-09-23 06:00:00 10.2 3 Sudeste 5 Sur 0 -- -- 94
2019-09-23 05:00:00 11.2 2 Sur 5 Sudoeste 0 -- -- 91
2019-09-23 04:00:00 12.2 2 Sudoeste 8 Oeste 0 -- -- 86
2019-09-23 03:00:00 13.2 6 Oeste 10 Oeste 0 -- -- 80
2019-09-23 02:00:00 12.6 4 Sudoeste 8 Oeste 0 -- -- 83
2019-09-23 01:00:00 13.1 6 Oeste 8 Oeste 0 -- -- 82
2019-09-23 00:00:00 13.7 5 Sudoeste 6 Sudoeste 0 -- -- 82
2019-09-22 23:00:00 15.4 3 Sudoeste 7 Noroeste 0 -- -- 75
2019-09-22 22:00:00 17.4 6 Noroeste 9 Noroeste 0 -- -- 65
2019-09-22 21:00:00 19.1 6 Noroeste 15 Noroeste 0 -- -- 58
2019-09-22 20:00:00 20.8 11 Noroeste 21 Noroeste 0 -- -- 53
2019-09-22 19:00:00 21.8 11 Noroeste 20 Norte 0 -- -- 52
2019-09-22 18:00:00 21.8 12 Noroeste 24 Noroeste 0 -- -- 53
2019-09-22 17:00:00 21.3 13 Noroeste 27 Norte 0 -- -- 53
2019-09-22 16:00:00 21 13 Noroeste 25 Noroeste 0 -- -- 59
2019-09-22 15:00:00 20.6 13 Noroeste 27 Noroeste 0 -- -- 60
2019-09-22 14:00:00 20.3 15 Noroeste 27 Oeste 0 -- -- 65
2019-09-22 13:00:00 18.7 10 Noroeste 20 Oeste 0 -- -- 71
2019-09-22 12:00:00 17.7 10 Oeste 19 Oeste 0 -- -- 78
2019-09-22 11:00:00 15.7 9 Oeste 18 Oeste 0 -- -- 87
2019-09-22 10:00:00 14.3 11 Oeste 20 Oeste 0 -- -- 91
2019-09-22 09:00:00 13.7 9 Noroeste 16 Oeste 0 -- -- 94
2019-09-22 08:00:00 13.4 6 Oeste 18 Oeste 0 -- -- 94
2019-09-22 07:00:00 14 13 Oeste 24 Noroeste 0 -- -- 93
2019-09-22 06:00:00 14.7 17 Oeste 28 Oeste 0 -- -- 91
2019-09-22 05:00:00 16.5 15 Oeste 31 Noroeste 0 -- -- 90
2019-09-22 04:00:00 17.3 12 Sur 23 Sudoeste 0 -- -- 94
2019-09-22 03:00:00 17.5 13 Sudoeste 24 Sudoeste 0 -- -- 89
2019-09-22 02:00:00 17.4 15 Sudoeste 36 Sudoeste 0 -- -- 88
2019-09-22 01:00:00 18.9 14 Sur 25 Sudoeste 0 -- -- 82
2019-09-22 00:00:00 19 18 Sur 30 Sur 0 -- -- 81
2019-09-21 23:00:00 19.1 14 Sur 26 Sur 0 -- -- 86
2019-09-21 22:00:00 19.5 10 Sur 25 Sur 0 -- -- 84
2019-09-21 21:00:00 20.1 16 Sur 30 Sur 0 -- -- 79
2019-09-21 20:00:00 21.3 18 Sur 31 Sur 0 -- -- 73
2019-09-21 19:00:00 21.9 23 Sur 37 Sur 0 -- -- 70
2019-09-21 18:00:00 22.4 22 Sur 36 Sur 0 -- -- 71
2019-09-21 17:00:00 21.2 18 Sur 30 Sudoeste 0 -- -- 77
2019-09-21 16:00:00 21.4 21 Sur 34 Sur 0 -- -- 77
2019-09-21 15:00:00 19.6 22 Sudoeste 34 Sur 0 -- -- 85
2019-09-21 14:00:00 20.2 21 Sur 35 Sur 0 -- -- 79
2019-09-21 13:00:00 19.8 21 Sur 33 Sur 0 -- -- 79
2019-09-21 12:00:00 18.9 14 Sur 21 Sur 0 -- -- 78
2019-09-21 11:00:00 18.1 12 Sur 19 Sur 0 -- -- 77
2019-09-21 10:00:00 17.8 9 Sur 19 Sur 0 -- -- 78
2019-09-21 09:00:00 17.3 11 Sur 21 Sur 0 -- -- 77
2019-09-21 08:00:00 16.9 9 Sur 14 Sur 0 -- -- 77
2019-09-21 07:00:00 16.6 5 Sur 18 Sur 0 -- -- 76
2019-09-21 06:00:00 17.1 14 Sur 21 Sur 0 -- -- 73
2019-09-21 05:00:00 17 5 Sudeste 10 Sudeste 0 -- -- 72
2019-09-21 04:00:00 17 6 Sur 14 Sur 0 -- -- 76
2019-09-21 03:00:00 16.6 9 Sur 15 Sur 0 -- -- 84
2019-09-21 02:00:00 16.4 8 Sur 14 Sur 0 -- -- 88
2019-09-21 01:00:00 16.6 9 Sur 14 Sur 0 -- -- 86
2019-09-21 00:00:00 16 10 Sur 12 Sur 0 -- -- 88
2019-09-20 23:00:00 17.4 4 Sudoeste 15 Sudoeste 0 -- -- 81
2019-09-20 22:00:00 18.2 8 Sudoeste 12 Sur 0 -- -- 78
2019-09-20 21:00:00 20 11 Sudoeste 19 Sudoeste 0 -- -- 67
2019-09-20 20:00:00 20.8 13 Sur 27 Sur 0 -- -- 74
2019-09-20 19:00:00 20.7 12 Sur 20 Sudeste 0 -- -- 78
2019-09-20 18:00:00 21.5 18 Sudeste 30 Sudeste 0 -- -- 70
2019-09-20 17:00:00 23.9 13 Sudoeste 32 Sudoeste 0 -- -- 52
2019-09-20 16:00:00 25.3 17 Sur 34 Sudoeste 0 -- -- 49
2019-09-20 15:00:00 25.7 19 Sur 33 Sur 0 -- -- 46
2019-09-20 14:00:00 24.6 23 Sudoeste 33 Sudoeste 0 -- -- 53
2019-09-20 13:00:00 24 16 Sur 35 Sudoeste 0 -- -- 51
2019-09-20 12:00:00 23.5 17 Sur 27 Sur 0 -- -- 52
2019-09-20 11:00:00 22.1 12 Sudeste 19 Sudeste 0 -- -- 53
2019-09-20 10:00:00 17.4 9 Sudeste 19 Sudeste 0 -- -- 66
2019-09-20 09:00:00 15.8 8 Sudeste 11 Sudeste 0 -- -- 74
2019-09-20 08:00:00 13.9 4 Sur 8 Sudeste 0 -- -- 86
2019-09-20 07:00:00 14.2 3 Sudeste 6 Sur 0 -- -- 86
2019-09-20 06:00:00 14.6 0 Calma 5 Sur 0 -- -- 85
2019-09-20 05:00:00 15.5 3 Sur 7 Sur 0 -- -- 81
2019-09-20 04:00:00 15.9 6 Sur 8 Sur 0 -- -- 78
2019-09-20 03:00:00 17.6 2 Sur 11 Oeste 0 -- -- 74
2019-09-20 02:00:00 19.7 6 Oeste 11 Oeste 0 -- -- 64
2019-09-20 01:00:00 20.9 7 Oeste 12 Oeste 0 -- -- 58
2019-09-20 00:00:00 20.1 3 Sur 7 Sur 0 -- -- 59
2019-09-19 23:00:00 22.4 6 Sudoeste 14 Oeste 0 -- -- 51
2019-09-19 22:00:00 23.7 9 Oeste 23 Oeste 0 -- -- 47
2019-09-19 21:00:00 25.5 15 Oeste 24 Oeste 0 -- -- 42
2019-09-19 20:00:00 28.5 5 Sudoeste 16 Sudoeste 0 -- -- 30
2019-09-19 19:00:00 29.5 7 Sudoeste 17 Sur 0 -- -- 28
2019-09-19 18:00:00 30 9 Sur 25 Sudeste 0 -- -- 29
2019-09-19 17:00:00 30.4 5 Sudeste 21 Sur 0 -- -- 27
2019-09-19 16:00:00 29.5 4 Sudeste 25 Sudeste 0 -- -- 32
2019-09-19 15:00:00 28.6 13 Sudeste 22 Sur 0 -- -- 36
2019-09-19 14:00:00 27 7 Norte 14 Norte 0 -- -- 44
2019-09-19 13:00:00 25.7 4 Noroeste 11 Este 0 -- -- 48
2019-09-19 12:00:00 23.5 3 Oeste 9 Norte 0 -- -- 56
2019-09-19 11:00:00 21.6 2 Noroeste 6 Norte 0 -- -- 64
2019-09-19 10:00:00 19.2 2 Sudeste 5 Sur 0 -- -- 72
2019-09-19 09:00:00 14.2 4 Sur 6 Sur 0 -- -- 91
2019-09-19 08:00:00 13.3 5 Sur 6 Sur 0 -- -- 90
2019-09-19 07:00:00 13.4 4 Sur 6 Sur 0 -- -- 89
2019-09-19 06:00:00 13.7 6 Sur 7 Sur 0 -- -- 89
2019-09-19 05:00:00 14.5 4 Sur 5 Sur 0 -- -- 89
2019-09-19 04:00:00 15.4 2 Sudoeste 7 Sudoeste 0 -- -- 85
2019-09-19 03:00:00 17.9 6 Oeste 15 Oeste 0 -- -- 71
2019-09-19 02:00:00 19 9 Oeste 22 Oeste 0 -- -- 65
2019-09-19 01:00:00 20.4 15 Oeste 23 Noroeste 0 -- -- 60
2019-09-19 00:00:00 20.3 4 Oeste 14 Oeste 0 -- -- 61
2019-09-18 23:00:00 22.1 12 Sudoeste 18 Sudoeste 0 -- -- 52
2019-09-18 22:00:00 23.8 12 Oeste 24 Noroeste 0 -- -- 46
2019-09-18 21:00:00 25.5 13 Noroeste 22 Noroeste 0 -- -- 42
2019-09-18 20:00:00 27.7 7 Noroeste 14 Sudoeste 0 -- -- 37
2019-09-18 19:00:00 29.7 6 Sudoeste 19 Oeste 0 -- -- 26
2019-09-18 18:00:00 29.9 9 Oeste 17 Oeste 0 -- -- 30
2019-09-18 17:00:00 29.6 14 Oeste 24 Sudoeste 0 -- -- 30
2019-09-18 16:00:00 28.9 10 Oeste 22 Oeste 0 -- -- 29
2019-09-18 15:00:00 28.1 8 Sudoeste 18 Sudoeste 0 -- -- 33
2019-09-18 14:00:00 26.9 5 Noroeste 13 Oeste 0 -- -- 42
2019-09-18 13:00:00 25.5 5 Sudoeste 14 Sudoeste 0 -- -- 48
2019-09-18 12:00:00 23.7 3 Sudoeste 14 Sur 0 -- -- 56
2019-09-18 11:00:00 21.9 5 Sur 10 Sur 0 -- -- 67
2019-09-18 10:00:00 19.1 3 Sudoeste 7 Sudoeste 0 -- -- 80
2019-09-18 09:00:00 15.8 5 Sur 6 Sur 0 -- -- 94
2019-09-18 08:00:00 15.1 0 Calma 6 Sur 0 -- -- 91
2019-09-18 07:00:00 15.8 4 Sur 9 Este 0 -- -- 89
2019-09-18 06:00:00 16.8 0 Calma 5 Norte 0 -- -- 86
2019-09-18 05:00:00 18.2 3 Noroeste 17 Sur 0 -- -- 76
2019-09-18 04:00:00 19.1 15 Sur 19 Sur 0 -- -- 73
2019-09-18 03:00:00 19.4 10 Sur 17 Sur 0 -- -- 73
2019-09-18 02:00:00 19.6 3 Sudeste 12 Sudoeste 0 -- -- 76
2019-09-18 01:00:00 20.3 2 Norte 15 Oeste 0 -- -- 76
2019-09-18 00:00:00 22.4 11 Oeste 20 Oeste 0 -- -- 64
2019-09-17 23:00:00 22.7 7 Oeste 13 Sudoeste 0 -- -- 67
2019-09-17 22:00:00 22.7 4 Oeste 24 Sudoeste 0 -- -- 74
2019-09-17 21:00:00 23.9 17 Oeste 39 Sudoeste 0 -- -- 56
2019-09-15 18:00:00 27.3 8 Oeste 21 Noroeste 0 -- -- 42
2019-09-15 17:00:00 26.8 6 Oeste 23 Oeste 0 -- -- 44
2019-09-15 16:00:00 27.3 8 Noroeste 18 Sudoeste 0 -- -- 43
2019-09-15 15:00:00 26.5 9 Oeste 17 Sudoeste 0 -- -- 48
2019-09-15 14:00:00 25.4 3 Noroeste 12 Sudeste 0 -- -- 54
2019-09-15 13:00:00 24.2 3 Noroeste 10 Noroeste 0 -- -- 59
2019-09-15 12:00:00 22.3 5 Noroeste 11 Norte 0 -- -- 69
2019-09-15 11:00:00 21.1 3 Oeste 5 Sudoeste 0 -- -- 75
2019-09-15 10:00:00 18.6 0 Calma 6 Sur 0 -- -- 90
2019-09-15 09:00:00 15.6 5 Sur 9 Sur 0 -- -- 98
2019-09-15 08:00:00 13.5 5 Sur 6 Sudeste 0 -- -- 97
2019-09-15 07:00:00 13.9 4 Sudeste 7 Sur 0 -- -- 97
2019-09-15 06:00:00 13.8 3 Sudeste 6 Sur 0 -- -- 97
2019-09-15 05:00:00 14.1 3 Sudoeste 5 Sudeste 0 -- -- 97
2019-09-15 04:00:00 14.6 3 Sur 5 Sur 0 -- -- 96
2019-09-15 03:00:00 15 0 Calma 4 Sur 0 -- -- 96
2019-09-15 02:00:00 15.7 3 Sur 5 Sur 0 -- -- 96
2019-09-15 01:00:00 16.2 0 Calma 4 Noroeste 0 -- -- 94
2019-09-15 00:00:00 17.2 2 Sur 7 Sudoeste 0 -- -- 94
2019-09-14 23:00:00 18.1 3 Sur 8 Norte 0 -- -- 91
2019-09-14 22:00:00 18.8 7 Norte -- -- 0 -- -- 91
2019-09-14 21:00:00 19.1 3 Sur 12 Oeste 0 -- -- 90
2019-09-14 20:00:00 19.2 5 Sudeste 14 Noroeste 0 -- -- 89
2019-09-14 19:00:00 19.5 6 Sudoeste 28 Sur 0 -- -- 81
2019-09-14 18:00:00 24.6 13 Este 26 Este 0 -- -- 49
2019-09-14 17:00:00 25.8 14 Este 42 Este 0 -- -- 46
2019-09-14 16:00:00 26.3 15 Nordeste 33 Nordeste 0 -- -- 42
2019-09-14 15:00:00 25.3 16 Nordeste 27 Nordeste 0 -- -- 48
2019-09-14 14:00:00 23.7 13 Este 25 Este 0 -- -- 56
2019-09-14 13:00:00 23.7 11 Nordeste 25 Nordeste 0 -- -- 59
2019-09-14 12:00:00 20.6 10 Este 20 Nordeste 0 -- -- 73
2019-09-14 11:00:00 18.8 8 Este 13 Nordeste 0 -- -- 82
2019-09-14 10:00:00 16.2 0 Calma 9 Sudoeste 0 -- -- 90
2019-09-14 09:00:00 14 4 Sur 9 Sudoeste 0 -- -- 89
2019-09-14 08:00:00 12.1 6 Sur 12 Sudoeste 0 -- -- 84
2019-09-14 07:00:00 12.4 4 Sur 9 Sur 0 -- -- 83
2019-09-14 06:00:00 13 2 Sur 5 Sur 0 -- -- 82
2019-09-14 05:00:00 13.6 2 Norte 6 Sudeste 0 -- -- 78
2019-09-14 04:00:00 14.7 4 Este 6 Este 0 -- -- 77
2019-09-14 03:00:00 15.3 0 Calma 9 Noroeste 0 -- -- 76
2019-09-14 02:00:00 16.5 3 Este 8 Sudeste 0 -- -- 69
2019-09-14 01:00:00 18 3 Este 9 Sudeste 0 -- -- 70
2019-09-14 00:00:00 18.7 5 Este 19 Sudeste 0 -- -- 67